createdAt,value
2023-01-07T00:01:09.463Z,84.08
2023-01-07T00:03:37.616Z,84.17
2023-01-07T00:06:08.972Z,84.07
2023-01-07T00:08:38.402Z,84.01
2023-01-07T00:11:07.569Z,84.38
2023-01-07T00:13:36.035Z,83.97
2023-01-07T00:16:06.708Z,84.19
2023-01-07T00:18:35.529Z,84.39
2023-01-07T00:21:07.841Z,84.12
2023-01-07T00:23:37.697Z,84.08
2023-01-07T00:26:08.555Z,84.34
2023-01-07T00:28:38.202Z,84.02
2023-01-07T00:31:09.768Z,84.06
2023-01-07T00:33:44.516Z,84.10
2023-01-07T00:36:13.923Z,84.34
2023-01-07T00:38:42.026Z,84.24
2023-01-07T00:41:11.056Z,84.17
2023-01-07T00:43:38.812Z,84.04
2023-01-07T00:46:07.077Z,84.19
2023-01-07T00:48:39.467Z,84.39
2023-01-07T00:51:07.694Z,84.19
2023-01-07T00:53:36.804Z,84.11
2023-01-07T00:56:06.914Z,84.09
2023-01-07T00:58:34.696Z,84.32
2023-01-07T01:01:03.523Z,84.05
2023-01-07T01:03:32.889Z,84.06
2023-01-07T01:06:03.419Z,84.25
2023-01-07T01:08:31.304Z,84.31
2023-01-07T01:11:05.311Z,84.26
2023-01-07T01:13:34.251Z,84.40
2023-01-07T01:16:02.568Z,84.09
2023-01-07T01:18:30.373Z,84.20
2023-01-07T01:21:03.419Z,84.32
2023-01-07T01:23:31.171Z,84.25
2023-01-07T01:26:05.444Z,84.24
2023-01-07T01:28:33.691Z,84.23
2023-01-07T01:31:01.940Z,84.29
2023-01-07T01:33:29.915Z,84.08
2023-01-07T01:35:57.961Z,84.42
2023-01-07T01:38:25.710Z,84.02
2023-01-07T01:40:53.581Z,84.25
2023-01-07T01:43:30.580Z,84.15
2023-01-07T01:46:01.998Z,84.06
2023-01-07T01:48:30.853Z,84.21
2023-01-07T01:50:59.133Z,84.28
2023-01-07T01:53:31.184Z,84.13
2023-01-07T01:56:04.011Z,84.15
2023-01-07T01:58:37.478Z,84.32
2023-01-07T02:01:05.843Z,84.17
2023-01-07T02:03:36.345Z,84.13
2023-01-07T02:06:05.143Z,84.38
2023-01-07T02:08:33.210Z,84.28
2023-01-07T02:11:13.011Z,83.89
2023-01-07T02:13:56.129Z,84.43
2023-01-07T02:16:35.958Z,84.02
2023-01-07T02:19:32.892Z,83.96
2023-01-07T02:22:07.592Z,84.25
2023-01-07T02:25:06.819Z,84.25
2023-01-07T02:28:05.736Z,84.07
2023-01-07T02:30:46.403Z,84.19
2023-01-07T02:33:42.012Z,84.25
2023-01-07T02:36:40.982Z,84.15
2023-01-07T02:39:23.117Z,84.09
2023-01-07T02:41:58.794Z,83.97
2023-01-07T02:44:36.535Z,84.14
2023-01-07T02:47:10.683Z,84.23
2023-01-07T02:49:39.825Z,84.33
2023-01-07T02:52:22.857Z,84.29
2023-01-07T02:54:56.256Z,84.08
2023-01-07T02:57:53.326Z,84.25
2023-01-07T03:00:37.217Z,83.90
2023-01-07T03:03:27.196Z,84.24
2023-01-07T03:06:06.782Z,84.14
2023-01-07T03:08:50.213Z,83.86
2023-01-07T03:11:20.604Z,84.30
2023-01-07T03:13:52.473Z,83.98
2023-01-07T03:16:27.057Z,84.06
2023-01-07T03:19:02.249Z,84.11
2023-01-07T03:21:34.941Z,84.27
2023-01-07T03:24:03.333Z,83.96
2023-01-07T03:26:33.863Z,84.19
2023-01-07T03:29:04.087Z,84.42
2023-01-07T03:31:32.680Z,84.11
2023-01-07T03:34:04.080Z,84.51
2023-01-07T03:36:38.650Z,84.07
2023-01-07T03:39:08.584Z,83.92
2023-01-07T03:41:53.777Z,83.94
2023-01-07T03:44:21.815Z,83.87
2023-01-07T03:46:50.056Z,84.23
2023-01-07T03:49:17.882Z,83.79
2023-01-07T03:51:49.480Z,84.22
2023-01-07T03:54:17.574Z,84.24
2023-01-07T03:56:45.387Z,84.37
2023-01-07T03:59:13.157Z,84.20
2023-01-07T04:01:41.259Z,83.99
2023-01-07T04:04:09.599Z,84.00
2023-01-07T04:06:37.663Z,84.21
2023-01-07T04:09:06.855Z,83.99
2023-01-07T04:11:34.821Z,84.29
2023-01-07T04:14:02.701Z,84.22
2023-01-07T04:16:30.684Z,84.36
2023-01-07T04:18:58.607Z,84.32
2023-01-07T04:21:26.501Z,84.37
2023-01-07T04:23:54.324Z,83.90
2023-01-07T04:26:23.732Z,84.13
2023-01-07T04:28:51.733Z,84.16
2023-01-07T04:31:19.576Z,84.11
2023-01-07T04:33:47.669Z,83.84
2023-01-07T04:36:15.492Z,84.25
2023-01-07T04:38:43.226Z,83.98
2023-01-07T04:41:11.043Z,84.27
2023-01-07T04:43:40.255Z,83.98
2023-01-07T04:46:08.103Z,84.01
2023-01-07T04:48:36.035Z,83.94
2023-01-07T04:51:03.910Z,83.99
2023-01-07T04:53:31.746Z,84.22
2023-01-07T04:55:59.542Z,84.35
2023-01-07T04:58:27.303Z,84.06
2023-01-07T05:00:58.602Z,83.95
2023-01-07T05:03:26.667Z,84.20
2023-01-07T05:05:54.414Z,84.30
2023-01-07T05:08:22.491Z,83.97
2023-01-07T05:10:50.525Z,83.95
2023-01-07T05:13:20.281Z,84.28
2023-01-07T05:15:48.211Z,84.43
2023-01-07T05:18:17.910Z,84.33
2023-01-07T05:20:47.521Z,84.03
2023-01-07T05:23:15.273Z,84.24
2023-01-07T05:25:43.522Z,84.28
2023-01-07T05:28:12.105Z,84.18
2023-01-07T05:30:40.160Z,84.17
2023-01-07T05:33:08.728Z,84.19
2023-01-07T05:35:37.966Z,84.29
2023-01-07T05:38:05.770Z,84.47
2023-01-07T05:40:33.500Z,84.36
2023-01-07T05:43:01.573Z,84.32
2023-01-07T05:45:29.465Z,84.00
2023-01-07T05:47:57.270Z,84.02
2023-01-07T05:50:25.134Z,83.86
2023-01-07T05:52:54.262Z,83.81
2023-01-07T05:55:22.073Z,84.40
2023-01-07T05:57:49.876Z,84.34
2023-01-07T06:00:18.631Z,84.00
2023-01-07T06:02:46.426Z,84.05
2023-01-07T06:05:14.589Z,83.88
2023-01-07T06:07:42.327Z,84.35
2023-01-07T06:10:11.878Z,84.36
2023-01-07T06:12:39.768Z,84.51
2023-01-07T06:15:09.786Z,84.10
2023-01-07T06:17:37.667Z,84.14
2023-01-07T06:20:06.798Z,84.05
2023-01-07T06:22:34.652Z,84.37
2023-01-07T06:25:02.366Z,84.07
2023-01-07T06:27:31.518Z,83.89
2023-01-07T06:29:59.309Z,84.19
2023-01-07T06:32:27.222Z,84.13
2023-01-07T06:34:55.179Z,83.94
2023-01-07T06:37:22.977Z,84.31
2023-01-07T06:39:50.759Z,84.03
2023-01-07T06:42:18.820Z,84.24
2023-01-07T06:44:47.971Z,84.05
2023-01-07T06:47:15.897Z,84.18
2023-01-07T06:49:43.793Z,84.39
2023-01-07T06:52:11.592Z,84.26
2023-01-07T06:54:39.354Z,84.33
2023-01-07T06:57:07.240Z,84.25
2023-01-07T06:59:35.128Z,84.29
2023-01-07T07:02:05.339Z,84.07
2023-01-07T07:04:33.176Z,84.09
2023-01-07T07:07:00.937Z,84.46
2023-01-07T07:09:28.709Z,84.12
2023-01-07T07:11:56.540Z,84.24
2023-01-07T07:14:24.491Z,84.08
2023-01-07T07:16:52.734Z,84.40
2023-01-07T07:19:21.913Z,84.19
2023-01-07T07:21:49.797Z,84.57
2023-01-07T07:24:17.597Z,84.39
2023-01-07T07:26:45.512Z,84.69
2023-01-07T07:29:13.375Z,84.36
2023-01-07T07:31:41.309Z,84.33
2023-01-07T07:34:10.433Z,84.45
2023-01-07T07:36:39.549Z,84.42
2023-01-07T07:39:07.452Z,84.27
2023-01-07T07:41:35.237Z,84.15
2023-01-07T07:44:03.291Z,84.39
2023-01-07T07:46:31.996Z,84.62
2023-01-07T07:49:00.298Z,84.63
2023-01-07T07:51:28.038Z,84.48
2023-01-07T07:53:57.186Z,84.12
2023-01-07T07:56:24.986Z,84.16
2023-01-07T07:58:52.729Z,84.14
2023-01-07T08:01:20.696Z,84.55
2023-01-07T08:03:48.788Z,84.20
2023-01-07T08:06:16.759Z,84.57
2023-01-07T08:08:44.662Z,84.10
2023-01-07T08:11:14.096Z,84.51
2023-01-07T08:13:41.838Z,84.24
2023-01-07T08:16:09.974Z,84.31
2023-01-07T08:18:37.817Z,84.65
2023-01-07T08:21:05.827Z,84.18
2023-01-07T08:23:34.807Z,84.18
2023-01-07T08:26:03.719Z,84.60
2023-01-07T08:28:33.545Z,84.63
2023-01-07T08:31:02.818Z,84.16
2023-01-07T08:33:31.463Z,84.52
2023-01-07T08:35:59.207Z,84.09
2023-01-07T08:38:28.873Z,84.60
2023-01-07T08:40:56.656Z,84.20
2023-01-07T08:43:26.982Z,84.06
2023-01-07T08:45:56.245Z,84.48
2023-01-07T08:48:24.127Z,84.44
2023-01-07T08:50:53.357Z,84.57
2023-01-07T08:53:21.193Z,84.27
2023-01-07T08:55:48.970Z,84.43
2023-01-07T08:58:16.826Z,84.25
2023-01-07T09:00:44.837Z,84.38
2023-01-07T09:03:14.050Z,84.62
2023-01-07T09:05:42.849Z,84.54
2023-01-07T09:08:10.751Z,84.60
2023-01-07T09:10:38.669Z,84.71
2023-01-07T09:13:06.868Z,84.09
2023-01-07T09:15:34.706Z,84.60
2023-01-07T09:18:03.682Z,84.27
2023-01-07T09:20:32.844Z,84.57
2023-01-07T09:23:00.641Z,84.68
2023-01-07T09:25:28.386Z,84.28
2023-01-07T09:27:56.187Z,84.42
2023-01-07T09:30:23.919Z,84.63
2023-01-07T09:32:51.724Z,84.28
2023-01-07T09:35:19.563Z,84.71
2023-01-07T09:37:48.723Z,84.28
2023-01-07T09:40:24.604Z,84.44
2023-01-07T09:42:59.569Z,84.70
2023-01-07T09:45:31.879Z,84.40
2023-01-07T09:48:03.959Z,84.30
2023-01-07T09:50:47.719Z,84.89
2023-01-07T09:53:20.874Z,84.54
2023-01-07T09:56:10.435Z,84.33
2023-01-07T09:58:42.907Z,84.56
2023-01-07T10:01:22.317Z,84.41
2023-01-07T10:04:03.724Z,84.46
2023-01-07T10:06:43.727Z,84.28
2023-01-07T10:09:25.178Z,84.32
2023-01-07T10:12:03.318Z,84.66
2023-01-07T10:15:02.036Z,84.46
2023-01-07T10:17:46.174Z,84.48
2023-01-07T10:20:24.505Z,84.51
2023-01-07T10:22:57.744Z,84.50
2023-01-07T10:25:31.013Z,84.73
2023-01-07T10:28:05.631Z,84.41
2023-01-07T10:30:41.821Z,84.67
2023-01-07T10:33:18.860Z,84.48
2023-01-07T10:35:49.221Z,84.82
2023-01-07T10:38:20.805Z,84.70
2023-01-07T10:40:55.361Z,84.72
2023-01-07T10:43:39.230Z,84.75
2023-01-07T10:46:19.941Z,84.34
2023-01-07T10:49:05.906Z,84.19
2023-01-07T10:51:47.147Z,84.49
2023-01-07T10:54:32.362Z,84.79
2023-01-07T10:57:10.884Z,84.67
2023-01-07T10:59:39.258Z,84.83
2023-01-07T11:02:18.162Z,84.57
2023-01-07T11:04:46.297Z,84.32
2023-01-07T11:07:21.656Z,84.70
2023-01-07T11:09:50.094Z,84.62
2023-01-07T11:12:28.935Z,84.56
2023-01-07T11:14:59.755Z,84.44
2023-01-07T11:17:35.982Z,84.38
2023-01-07T11:20:05.129Z,84.67
2023-01-07T11:22:35.008Z,84.66
2023-01-07T11:25:04.537Z,84.55
2023-01-07T11:27:35.562Z,84.66
2023-01-07T11:30:07.429Z,84.59
2023-01-07T11:32:38.423Z,84.53
2023-01-07T11:35:09.000Z,84.52
2023-01-07T11:37:39.501Z,84.47
2023-01-07T11:40:23.888Z,84.74
2023-01-07T11:42:55.236Z,84.61
2023-01-07T11:45:26.382Z,84.39
2023-01-07T11:48:01.038Z,84.27
2023-01-07T11:50:37.361Z,84.58
2023-01-07T11:53:22.776Z,84.84
2023-01-07T11:55:59.219Z,84.60
2023-01-07T11:58:31.457Z,84.60
2023-01-07T12:01:14.542Z,84.50
2023-01-07T12:03:44.852Z,84.25
2023-01-07T12:06:22.228Z,84.58
2023-01-07T12:08:56.933Z,84.69
2023-01-07T12:11:32.155Z,84.44
2023-01-07T12:14:07.609Z,84.58
2023-01-07T12:16:37.235Z,84.61
2023-01-07T12:19:24.299Z,84.55
2023-01-07T12:22:03.990Z,84.43
2023-01-07T12:25:04.288Z,84.27
2023-01-07T12:27:42.499Z,84.39
2023-01-07T12:31:00.472Z,84.81
2023-01-07T12:33:46.391Z,84.54
2023-01-07T12:36:19.142Z,84.54
2023-01-07T12:38:50.542Z,84.58
2023-01-07T12:41:23.707Z,84.50
2023-01-07T12:43:59.571Z,84.47
2023-01-07T12:46:36.423Z,84.88
2023-01-07T12:49:11.687Z,84.69
2023-01-07T12:51:46.354Z,84.50
2023-01-07T12:54:19.673Z,84.77
2023-01-07T12:56:54.597Z,84.45
2023-01-07T12:59:46.665Z,84.36
2023-01-07T13:02:28.791Z,84.63
2023-01-07T13:05:06.649Z,84.19
2023-01-07T13:07:41.404Z,84.76
2023-01-07T13:10:16.911Z,84.45
2023-01-07T13:12:46.228Z,84.48
2023-01-07T13:15:21.891Z,84.67
2023-01-07T13:17:53.839Z,84.69
2023-01-07T13:20:45.406Z,84.85
2023-01-07T13:23:20.665Z,84.55
2023-01-07T13:26:16.606Z,84.29
2023-01-07T13:29:24.953Z,84.49
2023-01-07T13:32:17.408Z,84.67
2023-01-07T13:34:59.868Z,84.68
2023-01-07T13:37:45.730Z,84.60
2023-01-07T13:40:28.321Z,84.73
2023-01-07T13:43:07.371Z,84.55
2023-01-07T13:45:38.591Z,84.82
2023-01-07T13:48:18.126Z,84.63
2023-01-07T13:50:57.929Z,84.47
2023-01-07T13:53:45.933Z,84.62
2023-01-07T13:56:39.676Z,84.29
2023-01-07T13:59:29.946Z,84.84
2023-01-07T14:02:18.112Z,84.71
2023-01-07T14:04:51.727Z,84.19
2023-01-07T14:07:21.425Z,84.43
2023-01-07T14:09:51.837Z,84.65
2023-01-07T14:12:39.688Z,84.21
2023-01-07T14:15:55.860Z,84.58
2023-01-07T14:18:45.829Z,84.50
2023-01-07T14:21:23.862Z,84.65
2023-01-07T14:24:04.865Z,84.65
2023-01-07T14:26:41.407Z,84.59
2023-01-07T14:29:26.765Z,84.41
2023-01-07T14:32:21.281Z,84.67
2023-01-07T14:34:55.549Z,84.61
2023-01-07T14:37:32.723Z,84.68
2023-01-07T14:40:03.150Z,84.59
2023-01-07T14:42:48.903Z,84.51
2023-01-07T14:45:55.326Z,84.43
2023-01-07T14:48:35.105Z,84.49
2023-01-07T14:51:20.430Z,85.01
2023-01-07T14:54:07.422Z,84.75
2023-01-07T14:56:48.928Z,84.74
2023-01-07T14:59:43.424Z,84.64
2023-01-07T15:02:44.754Z,84.71
2023-01-07T15:05:30.478Z,84.63
2023-01-07T15:08:17.252Z,84.71
2023-01-07T15:11:05.204Z,84.86
2023-01-07T15:13:59.391Z,84.66
2023-01-07T15:16:28.332Z,85.10
2023-01-07T15:18:57.734Z,84.75
2023-01-07T15:21:36.817Z,84.85
2023-01-07T15:24:12.779Z,84.87
2023-01-07T15:26:49.616Z,84.79
2023-01-07T15:29:26.519Z,84.60
2023-01-07T15:32:03.340Z,84.34
2023-01-07T15:34:33.228Z,84.94
2023-01-07T15:37:05.306Z,84.83
2023-01-07T15:39:36.475Z,84.72
2023-01-07T15:42:04.294Z,84.81
2023-01-07T15:44:40.685Z,84.71
2023-01-07T15:47:40.040Z,84.79
2023-01-07T15:50:30.077Z,84.61
2023-01-07T15:53:00.864Z,84.87
2023-01-07T15:55:31.699Z,84.91
2023-01-07T15:58:06.741Z,84.60
2023-01-07T16:00:36.960Z,84.65
2023-01-07T16:03:06.101Z,84.99
2023-01-07T16:05:37.914Z,84.75
2023-01-07T16:08:06.774Z,84.85
2023-01-07T16:10:35.977Z,85.02
2023-01-07T16:13:05.907Z,84.87
2023-01-07T16:15:37.698Z,85.04
2023-01-07T16:18:18.910Z,85.26
2023-01-07T16:20:54.593Z,84.87
2023-01-07T16:23:24.827Z,84.97
2023-01-07T16:25:57.308Z,84.97
2023-01-07T16:28:28.475Z,85.09
2023-01-07T16:30:58.904Z,85.10
2023-01-07T16:33:31.202Z,84.50
2023-01-07T16:36:01.548Z,85.02
2023-01-07T16:38:32.179Z,84.87
2023-01-07T16:41:00.974Z,85.10
2023-01-07T16:43:34.731Z,84.96
2023-01-07T16:46:18.590Z,84.73
2023-01-07T16:48:46.643Z,85.18
2023-01-07T16:51:38.447Z,85.29
2023-01-07T16:54:31.892Z,84.99
2023-01-07T16:57:01.484Z,84.85
2023-01-07T16:59:31.899Z,84.97
2023-01-07T17:02:10.940Z,84.91
2023-01-07T17:04:39.088Z,84.94
2023-01-07T17:07:07.767Z,85.16
2023-01-07T17:09:38.740Z,84.88
2023-01-07T17:12:06.979Z,84.87
2023-01-07T17:14:50.920Z,85.13
2023-01-07T17:17:25.048Z,85.21
2023-01-07T17:19:55.632Z,85.26
2023-01-07T17:22:32.489Z,85.41
2023-01-07T17:30:41.919Z,84.96
2023-01-07T17:33:16.537Z,84.97
2023-01-07T17:35:46.777Z,85.08
2023-01-07T17:38:15.769Z,85.22
2023-01-07T17:40:43.764Z,85.20
2023-01-07T17:43:34.433Z,85.00
2023-01-07T17:46:02.761Z,85.35
2023-01-07T17:48:32.276Z,84.99
2023-01-07T17:51:01.478Z,85.00
2023-01-07T17:53:32.439Z,84.97
2023-01-07T17:56:04.776Z,85.21
2023-01-07T17:58:34.342Z,85.16
2023-01-07T18:01:06.519Z,85.18
2023-01-07T18:03:35.971Z,85.56
2023-01-07T18:06:04.697Z,85.48
2023-01-07T18:08:32.549Z,85.41
2023-01-07T18:11:17.943Z,85.30
2023-01-07T18:13:45.810Z,85.46
2023-01-07T18:16:15.379Z,85.37
2023-01-07T18:18:44.505Z,85.30
2023-01-07T18:21:13.381Z,85.32
2023-01-07T18:23:41.369Z,85.30
2023-01-07T18:26:09.338Z,85.39
2023-01-07T18:28:37.110Z,85.41
2023-01-07T18:31:05.519Z,85.40
2023-01-07T18:33:35.129Z,85.46
2023-01-07T18:36:05.140Z,85.40
2023-01-07T18:38:32.934Z,85.28
2023-01-07T18:41:00.685Z,85.21
2023-01-07T18:43:28.521Z,85.39
2023-01-07T18:45:56.387Z,85.16
2023-01-07T18:48:24.484Z,85.39
2023-01-07T18:50:52.425Z,85.22
2023-01-07T18:53:22.463Z,85.28
2023-01-07T18:55:58.627Z,85.36
2023-01-07T18:58:28.550Z,85.64
2023-01-07T19:00:56.556Z,85.42
2023-01-07T19:03:24.440Z,85.24
2023-01-07T19:05:52.188Z,85.51
2023-01-07T19:08:21.299Z,85.40
2023-01-07T19:10:51.916Z,85.37
2023-01-07T19:13:19.744Z,85.55
2023-01-07T19:15:47.589Z,85.76
2023-01-07T19:18:15.510Z,85.30
2023-01-07T19:20:43.298Z,85.68
2023-01-07T19:23:11.262Z,85.53
2023-01-07T19:25:40.374Z,85.20
2023-01-07T19:28:08.347Z,85.63
2023-01-07T19:30:36.382Z,85.65
2023-01-07T19:33:06.417Z,85.28
2023-01-07T19:35:34.270Z,85.67
2023-01-07T19:38:02.025Z,85.61
2023-01-07T19:40:29.796Z,85.75
2023-01-07T19:42:58.955Z,85.46
2023-01-07T19:45:26.777Z,85.52
2023-01-07T19:47:54.683Z,85.66
2023-01-07T19:50:22.563Z,85.53
2023-01-07T19:52:50.278Z,85.42
2023-01-07T19:55:18.710Z,85.59
2023-01-07T19:57:46.494Z,85.45
2023-01-07T20:00:16.188Z,85.43
2023-01-07T20:02:44.107Z,85.58
2023-01-07T20:05:11.941Z,85.65
2023-01-07T20:07:39.851Z,85.56
2023-01-07T20:10:08.718Z,85.89
2023-01-07T20:12:36.787Z,85.90
2023-01-07T20:15:04.978Z,85.47
2023-01-07T20:17:34.266Z,85.54
2023-01-07T20:20:02.344Z,85.83
2023-01-07T20:22:30.232Z,85.96
2023-01-07T20:24:58.052Z,85.61
2023-01-07T20:27:26.025Z,85.76
2023-01-07T20:29:54.933Z,85.73
2023-01-07T20:32:22.671Z,85.81
2023-01-07T20:34:51.971Z,85.75
2023-01-07T20:37:19.810Z,85.61
2023-01-07T20:39:48.077Z,85.84
2023-01-07T20:42:15.954Z,85.66
2023-01-07T20:44:43.798Z,85.89
2023-01-07T20:47:11.620Z,85.89
2023-01-07T20:49:39.434Z,86.03
2023-01-07T20:52:08.567Z,85.74
2023-01-07T20:54:36.456Z,85.73
2023-01-07T20:57:04.463Z,85.99
2023-01-07T20:59:35.033Z,85.88
2023-01-07T21:02:03.010Z,85.71
2023-01-07T21:04:31.946Z,85.78
2023-01-07T21:06:59.708Z,85.81
2023-01-07T21:09:28.859Z,85.95
2023-01-07T21:11:56.640Z,85.99
2023-01-07T21:14:24.386Z,86.04
2023-01-07T21:16:52.223Z,85.88
2023-01-07T21:19:20.278Z,85.93
2023-01-07T21:21:48.635Z,85.65
2023-01-07T21:24:17.434Z,85.76
2023-01-07T21:26:46.709Z,86.16
2023-01-07T21:29:16.016Z,86.16
2023-01-07T21:31:45.307Z,86.06
2023-01-07T21:34:13.213Z,85.88
2023-01-07T21:36:41.507Z,85.94
2023-01-07T21:39:09.569Z,85.79
2023-01-07T21:41:37.525Z,85.76
2023-01-07T21:44:07.059Z,86.16
2023-01-07T21:46:34.799Z,85.90
2023-01-07T21:49:03.820Z,86.18
2023-01-07T21:51:31.716Z,86.09
2023-01-07T21:54:00.889Z,86.14
2023-01-07T21:56:32.702Z,85.91
2023-01-07T21:59:01.143Z,86.26
2023-01-07T22:01:30.656Z,86.25
2023-01-07T22:03:59.500Z,86.10
2023-01-07T22:06:29.208Z,86.15
2023-01-07T22:08:58.651Z,86.06
2023-01-07T22:11:28.034Z,86.32
2023-01-07T22:13:57.910Z,85.97
2023-01-07T22:16:27.972Z,86.07
2023-01-07T22:18:58.152Z,86.03
2023-01-07T22:21:26.171Z,86.08
2023-01-07T22:23:54.006Z,86.10
2023-01-07T22:26:24.001Z,86.26
2023-01-07T22:28:54.304Z,86.21
2023-01-07T22:31:24.129Z,86.24
2023-01-07T22:33:53.045Z,86.03
2023-01-07T22:36:27.231Z,86.21
2023-01-07T22:38:57.905Z,86.14
2023-01-07T22:41:28.298Z,86.46
2023-01-07T22:43:56.377Z,86.14
2023-01-07T22:46:26.294Z,86.40
2023-01-07T22:48:54.336Z,86.42
2023-01-07T22:51:27.766Z,86.33
2023-01-07T22:53:58.240Z,86.01
2023-01-07T22:56:26.405Z,86.65
2023-01-07T22:58:55.173Z,86.20
2023-01-07T23:01:23.091Z,86.35
2023-01-07T23:03:50.950Z,86.55
2023-01-07T23:06:18.945Z,86.36
2023-01-07T23:08:48.181Z,86.49
2023-01-07T23:11:36.055Z,86.49
2023-01-07T23:14:04.925Z,86.61
2023-01-07T23:16:33.223Z,86.12
2023-01-07T23:19:01.099Z,86.20
2023-01-07T23:21:31.428Z,86.51
2023-01-07T23:24:01.496Z,86.37
2023-01-07T23:26:29.339Z,86.23
2023-01-07T23:28:57.235Z,86.33
2023-01-07T23:31:25.037Z,86.47
2023-01-07T23:33:53.200Z,86.53
2023-01-07T23:36:21.265Z,86.48
2023-01-07T23:38:49.056Z,86.20
2023-01-07T23:41:18.771Z,86.36
2023-01-07T23:43:46.557Z,86.30
2023-01-07T23:46:14.579Z,86.31
2023-01-07T23:48:42.379Z,86.25
2023-01-07T23:51:13.869Z,86.54
2023-01-07T23:53:42.430Z,86.39
2023-01-07T23:56:11.257Z,86.67
2023-01-07T23:58:40.911Z,86.31
